createdAt,value
2019-05-01T00:04:49.578Z,98869.26
2019-05-01T00:09:52.929Z,98868.42
2019-05-01T00:14:56.349Z,98861.05
2019-05-01T00:19:59.695Z,98858.34
2019-05-01T00:25:03.209Z,98855.00
2019-05-01T00:30:08.364Z,98846.86
2019-05-01T00:35:11.677Z,98842.48
2019-05-01T00:40:15.074Z,98833.00
2019-05-01T00:45:18.469Z,98829.17
2019-05-01T00:50:21.815Z,98833.23
2019-05-01T00:55:38.875Z,98824.34
2019-05-01T01:00:59.827Z,98820.13
2019-05-01T01:06:04.774Z,98822.39
2019-05-01T01:11:08.267Z,98805.61
2019-05-01T01:16:11.580Z,98803.11
2019-05-01T01:21:14.955Z,98800.19
2019-05-01T01:26:18.267Z,98796.64
2019-05-01T01:31:21.580Z,98791.73
2019-05-01T01:36:24.911Z,98789.86
2019-05-01T01:41:28.226Z,98772.97
2019-05-01T01:46:33.179Z,98764.84
2019-05-01T01:51:36.477Z,98768.63
2019-05-01T01:56:39.789Z,98759.13
2019-05-01T02:01:50.316Z,98758.37
2019-05-01T02:06:53.703Z,98746.41
2019-05-01T02:11:57.021Z,98746.09
2019-05-01T02:17:00.336Z,98751.73
2019-05-01T02:22:03.637Z,98744.88
2019-05-01T02:27:11.150Z,98737.58
2019-05-01T02:32:15.238Z,98727.98
2019-05-01T02:37:18.527Z,98727.47
2019-05-01T02:42:22.016Z,98731.53
2019-05-01T02:47:27.069Z,98724.44
2019-05-01T02:52:32.097Z,98722.28
2019-05-01T02:57:35.423Z,98726.04
2019-05-01T03:02:38.856Z,98728.52
2019-05-01T03:07:42.183Z,98729.86
2019-05-01T03:12:45.528Z,98733.65
2019-05-01T03:17:53.133Z,98735.52
2019-05-01T03:23:14.164Z,98738.23
2019-05-01T03:28:17.748Z,98750.20
2019-05-01T03:33:21.215Z,98743.14
2019-05-01T03:38:24.539Z,98750.44
2019-05-01T03:43:28.132Z,98736.05
2019-05-01T03:48:31.467Z,98733.65
2019-05-01T03:53:34.902Z,98731.98
2019-05-01T03:58:38.244Z,98724.69
2019-05-01T04:03:51.966Z,98726.25
2019-05-01T04:08:55.555Z,98725.92
2019-05-01T04:13:58.891Z,98711.14
2019-05-01T04:19:02.350Z,98705.86
2019-05-01T04:24:05.649Z,98698.68
2019-05-01T04:29:13.166Z,98696.89
2019-05-01T04:34:30.047Z,98707.94
2019-05-01T04:39:33.353Z,98716.07
2019-05-01T04:44:36.697Z,98720.66
2019-05-01T04:49:40.000Z,98711.69
2019-05-01T04:54:43.290Z,98707.21
2019-05-01T04:59:46.639Z,98704.78
2019-05-01T05:04:49.962Z,98722.12
2019-05-01T05:09:53.291Z,98722.64
2019-05-01T05:15:01.317Z,98723.67
2019-05-01T05:20:06.786Z,98716.52
2019-05-01T05:25:10.126Z,98718.59
2019-05-01T05:30:14.058Z,98730.58
2019-05-01T05:35:17.434Z,98724.33
2019-05-01T05:40:20.748Z,98726.83
2019-05-01T05:45:24.050Z,98723.16
2019-05-01T05:50:31.655Z,98716.98
2019-05-01T05:55:36.641Z,98715.03
2019-05-01T06:00:41.616Z,98710.76
2019-05-01T06:05:46.601Z,98728.89
2019-05-01T06:11:07.500Z,98726.18
2019-05-01T06:16:18.297Z,98735.35
2019-05-01T06:21:29.200Z,98753.17
2019-05-01T06:26:37.358Z,98732.77
2019-05-01T06:31:39.082Z,98730.97
2019-05-01T06:36:44.445Z,98715.16
2019-05-01T06:41:47.415Z,98706.83
2019-05-01T06:46:58.158Z,98710.05
2019-05-01T06:52:02.301Z,98721.59
2019-05-01T06:57:05.588Z,98722.05
2019-05-01T07:02:09.470Z,98728.52
2019-05-01T07:07:24.673Z,98738.37
2019-05-01T07:12:19.488Z,98724.64
2019-05-01T07:17:23.952Z,98728.18
2019-05-01T07:22:27.393Z,98727.33
2019-05-01T07:27:30.706Z,98736.05
2019-05-01T07:32:36.506Z,98715.41
2019-05-01T07:37:39.277Z,98718.50
2019-05-01T07:42:48.321Z,98709.19
2019-05-01T07:47:53.565Z,98713.78
2019-05-01T07:52:56.888Z,98712.39
2019-05-01T07:58:00.199Z,98727.69
2019-05-01T08:03:07.232Z,98722.40
2019-05-01T08:08:09.625Z,98720.94
2019-05-01T08:13:12.997Z,98712.63
2019-05-01T08:18:17.990Z,98715.38
2019-05-01T08:23:21.369Z,98712.05
2019-05-01T08:28:27.694Z,98713.61
2019-05-01T08:33:33.054Z,98710.48
2019-05-01T08:38:36.460Z,98724.08
2019-05-01T08:43:39.961Z,98721.16
2019-05-01T08:48:59.788Z,98717.92
2019-05-01T08:54:03.164Z,98728.31
2019-05-01T08:59:06.482Z,98724.38
2019-05-01T09:04:13.038Z,98720.41
2019-05-01T09:09:14.913Z,98719.38
2019-05-01T09:14:18.236Z,98720.22
2019-05-01T09:19:21.648Z,98717.12
2019-05-01T09:24:27.977Z,98719.59
2019-05-01T09:29:37.552Z,98726.05
2019-05-01T09:34:40.931Z,98732.10
2019-05-01T09:39:47.069Z,98725.70
2019-05-01T09:44:49.276Z,98718.47
2019-05-01T09:49:53.878Z,98718.02
2019-05-01T09:55:05.165Z,98710.91
2019-05-01T10:00:10.106Z,98713.40
2019-05-01T10:05:13.498Z,98712.77
2019-05-01T10:10:16.813Z,98699.22
2019-05-01T10:15:20.634Z,98711.03
2019-05-01T10:20:23.952Z,98708.05
2019-05-01T10:25:27.269Z,98705.81
2019-05-01T10:30:44.011Z,98701.56
2019-05-01T10:36:03.813Z,98703.40
2019-05-01T10:41:09.155Z,98696.83
2019-05-01T10:46:12.236Z,98694.03
2019-05-01T10:51:15.600Z,98685.02
2019-05-01T10:56:18.927Z,98674.02
2019-05-01T11:01:23.926Z,98668.50
2019-05-01T11:06:27.328Z,98664.13
2019-05-01T11:11:30.751Z,98661.20
2019-05-01T11:16:34.114Z,98661.27
2019-05-01T11:21:37.440Z,98665.88
2019-05-01T11:26:40.792Z,98654.93
2019-05-01T11:31:54.670Z,98651.55
2019-05-01T11:37:15.737Z,98651.70
2019-05-01T11:42:19.260Z,98643.09
2019-05-01T11:47:22.660Z,98644.98
2019-05-01T11:52:26.014Z,98645.02
2019-05-01T11:57:29.360Z,98636.00
2019-05-01T12:02:34.172Z,98634.55
2019-05-01T12:07:37.536Z,98632.81
2019-05-01T12:12:40.873Z,98635.41
2019-05-01T12:17:45.858Z,98630.63
2019-05-01T12:22:51.399Z,98618.77
2019-05-01T12:27:54.232Z,98622.85
2019-05-01T12:32:57.763Z,98622.89
2019-05-01T12:38:02.813Z,98616.73
2019-05-01T12:43:06.149Z,98621.84
2019-05-01T12:48:09.582Z,98614.02
2019-05-01T12:53:14.568Z,98609.17
2019-05-01T12:58:17.994Z,98603.16
2019-05-01T13:03:21.328Z,98603.28
2019-05-01T13:08:24.712Z,98601.33
2019-05-01T13:13:28.449Z,98595.49
2019-05-01T13:18:31.946Z,98590.02
2019-05-01T13:23:35.412Z,98594.30
2019-05-01T13:28:40.370Z,98595.38
2019-05-01T13:33:43.849Z,98582.34
2019-05-01T13:38:47.183Z,98565.44
2019-05-01T13:43:50.534Z,98566.63
2019-05-01T13:48:54.020Z,98562.20
2019-05-01T13:53:57.581Z,98556.92
2019-05-01T13:59:01.082Z,98552.86
2019-05-01T14:04:04.387Z,98537.89
2019-05-01T14:09:09.884Z,98539.92
2019-05-01T14:14:13.191Z,98531.58
2019-05-01T14:19:16.548Z,98526.88
2019-05-01T14:24:27.115Z,98523.79
2019-05-01T14:29:30.485Z,98515.13
2019-05-01T14:34:33.814Z,98517.80
2019-05-01T14:39:37.159Z,98504.66
2019-05-01T14:44:40.500Z,98502.77
2019-05-01T14:49:43.930Z,98502.59
2019-05-01T14:54:47.253Z,98504.56
2019-05-01T14:59:50.544Z,98488.45
2019-05-01T15:04:53.869Z,98487.70
2019-05-01T15:09:57.182Z,98489.37
2019-05-01T15:15:02.148Z,98484.65
2019-05-01T15:20:07.173Z,98481.85
2019-05-01T15:25:10.737Z,98477.11
2019-05-01T15:30:17.458Z,98476.37
2019-05-01T15:35:20.769Z,98476.29
2019-05-01T15:40:28.806Z,98471.27
2019-05-01T15:45:32.189Z,98466.05
2019-05-01T15:50:35.517Z,98458.27
2019-05-01T15:55:38.841Z,98460.73
2019-05-01T16:00:42.234Z,98451.40
2019-05-01T16:05:45.567Z,98445.75
2019-05-01T16:10:53.280Z,98448.57
2019-05-01T16:15:56.687Z,98445.61
2019-05-01T16:21:00.092Z,98452.48
2019-05-01T16:26:03.835Z,98449.70
2019-05-01T16:31:07.244Z,98438.54
2019-05-01T16:36:10.685Z,98439.01
2019-05-01T16:41:14.076Z,98441.48
2019-05-01T16:46:17.451Z,98434.55
2019-05-01T16:51:20.771Z,98428.75
2019-05-01T16:56:24.072Z,98427.83
2019-05-01T17:01:45.008Z,98433.36
2019-05-01T17:06:49.967Z,98428.82
2019-05-01T17:11:53.274Z,98435.25
2019-05-01T17:16:56.691Z,98433.80
2019-05-01T17:22:00.204Z,98432.23
2019-05-01T17:27:04.027Z,98431.18
2019-05-01T17:32:09.122Z,98429.27
2019-05-01T17:37:13.093Z,98427.64
2019-05-01T17:42:16.505Z,98426.28
2019-05-01T17:47:22.481Z,98423.27
2019-05-01T17:52:25.106Z,98425.66
2019-05-01T17:57:28.503Z,98426.44
2019-05-01T18:02:48.390Z,98425.97
2019-05-01T18:07:51.695Z,98431.86
2019-05-01T18:12:55.021Z,98426.81
2019-05-01T18:17:58.455Z,98424.31
2019-05-01T18:23:03.403Z,98428.78
2019-05-01T18:28:17.093Z,98423.73
2019-05-01T18:33:22.029Z,98426.71
2019-05-01T18:38:29.680Z,98431.92
2019-05-01T18:43:33.919Z,98426.19
2019-05-01T18:48:37.374Z,98435.16
2019-05-01T18:53:40.789Z,98433.12
2019-05-01T18:58:44.114Z,98445.78
2019-05-01T19:03:47.510Z,98444.95
2019-05-01T19:08:50.854Z,98443.29
2019-05-01T19:13:54.196Z,98450.69
2019-05-01T19:18:57.539Z,98448.86
2019-05-01T19:24:06.017Z,98449.33
2019-05-01T19:29:09.708Z,98455.28
2019-05-01T19:34:13.136Z,98456.27
2019-05-01T19:39:16.462Z,98444.53
2019-05-01T19:44:20.151Z,98446.63
2019-05-01T19:49:24.755Z,98444.16
2019-05-01T19:54:29.999Z,98439.84
2019-05-01T19:59:33.501Z,98440.77
2019-05-01T20:04:36.822Z,98440.73
2019-05-01T20:09:40.188Z,98437.28
2019-05-01T20:14:43.508Z,98428.02
2019-05-01T20:19:46.871Z,98428.27
2019-05-01T20:24:50.173Z,98434.73
2019-05-01T20:29:53.497Z,98419.98
2019-05-01T20:34:59.304Z,98423.16
2019-05-01T20:40:10.869Z,98422.07
2019-05-01T20:45:17.669Z,98427.65
2019-05-01T20:50:14.773Z,98427.65
2019-05-01T20:55:18.086Z,98421.12
2019-05-01T21:00:23.019Z,98415.08
2019-05-01T21:05:30.971Z,98408.83
2019-05-01T21:10:36.158Z,98411.27
2019-05-01T21:15:39.515Z,98411.69
2019-05-01T21:20:43.893Z,98407.72
2019-05-01T21:25:47.242Z,98410.64
2019-05-01T21:30:50.542Z,98402.83
2019-05-01T21:35:54.121Z,98401.25
2019-05-01T21:40:57.440Z,98397.25
2019-05-01T21:46:00.782Z,98388.50
2019-05-01T21:51:07.232Z,98393.40
2019-05-01T21:56:09.189Z,98386.88
2019-05-01T22:01:12.512Z,98380.63
2019-05-01T22:06:16.683Z,98374.37
2019-05-01T22:11:20.122Z,98376.86
2019-05-01T22:16:25.102Z,98373.84
2019-05-01T22:21:45.134Z,98368.17
2019-05-01T22:26:58.788Z,98367.65
2019-05-01T22:32:09.554Z,98370.09
2019-05-01T22:37:12.943Z,98365.19
2019-05-01T22:42:16.364Z,98360.30
2019-05-01T22:47:19.806Z,98357.58
2019-05-01T22:52:23.177Z,98351.02
2019-05-01T22:57:26.530Z,98345.08
2019-05-01T23:02:34.225Z,98343.94
2019-05-01T23:07:37.525Z,98343.67
2019-05-01T23:12:40.911Z,98343.14
2019-05-01T23:17:47.477Z,98334.18
2019-05-01T23:22:50.822Z,98337.41
2019-05-01T23:27:54.234Z,98333.56
2019-05-01T23:32:57.550Z,98328.15
2019-05-01T23:38:00.886Z,98321.38
2019-05-01T23:43:04.295Z,98313.77
2019-05-01T23:48:07.591Z,98310.53
2019-05-01T23:53:14.057Z,98308.34
2019-05-01T23:58:16.128Z,98295.57
